LCLK/LCA METAR and TAF weather

Enter ICAO airport designator
Station Type Date Time Source
LCLK METAR 2020/02/20 17:00 UTC NOAA

LCLK 201700Z 23012KT 9999 FEW028 BKN060 15/11 Q1016 NOSIG


Station Type Date Time Source
LCLK Decoded METAR 2020/02/20 17:00 UTC NOAA

Larnaca Airport, Cyprus (LCLK) 34-53N 033-38E 2M
Feb 20, 2020 - 12:00 PM EST / 2020.02.20 1700 UTC
Wind: from the SW (230 degrees) at 14 MPH (12 KT):0
Visibility: greater than 7 mile(s):0
Sky conditions: mostly cloudy
Temperature: 59 F (15 C)
Dew Point: 51 F (11 C)
Relative Humidity: 76%
Pressure (altimeter): 30.00 in. Hg (1016 hPa)
ob: LCLK 201700Z 23012KT 9999 FEW028 BKN060 15/11 Q1016 NOSIG
cycle: 17

Station Type Date Time Source
LCLK TAF 2020/02/20 12:34 UTC NOAA

TAF LCLK 201130Z 2012/2112 22019KT 9999 FEW020
BECMG 2016/2019 25009KT PROB30
TEMPO 2104/2112 5000 SHRA PROB40
TEMPO 2108/2112 VRB20G30KT 2500 TSRA BKN020CB
BECMG 2109/2111 20019KT

Example: see airport list